Ventura — ZCDT2 — position and weather

sailwx.info

Track history (hours):
 
Tides and Currents Weather Stations Pressure Air Temp Water Temp Dewpoint Dewpoint Depression Visibility Wind Speed Wind Dir Waves Ship Positions

Ventura

Last reported at 2018-Feb-22 20:00 UTC. Time now 2018-Feb-24 06:30 UTC.
Position N 27°00' W 088°18'.

Length 289 m; draft 8.6 m.

Type: Passenger vessel. MMSI: 310562000.

Wind from 110 at 25 knots

Barometer 1023.9 mb
Air temperature 25.0 ° C
Visibility: greater than 10.8 NM
Dewpoint 22.0 ° C
Water temperature 25.4 ° C

Date/timePositionNaut miles runAvg speedWind from/ knotsBaromVisibWave heightAir tempDewpointWater temp
2018-Feb-22 20:00N 27°00' W 088°18'   110 / 251023.910.8 25.022.025.4
2018-Feb-20 04:00N 18°42' W 077°18'42913.4 090 / 201022.410.8 25.619.826.5
2018-Feb-18 20:00N 17°00' W 070°00'1717.2 080 / 211016.810.8 25.820.5
2018-Feb-18 19:00N 17°00' W 069°42'3417.2 050 / 251017.310.8 25.221.326.6
2018-Feb-18 17:00N 17°00' W 069°06'2928.7 060 / 201018.910.8 25.018.826.5
2018-Feb-18 16:00N 17°00' W 068°36'56651416.2 060 / 201020.210.8 25.019.126.0
2018-Feb-18 12:00N 16°54' W 167°18'5915739.3 080 / 201019.110.8 24.019.227.0
2018-Feb-18 04:00N 16°48' W 064°18'9518.8 060 / 201019.010.8 23.516.226.0
2018-Feb-17 22:56N 16°54' W 062°39'919.9
2018-Feb-17 22:28N 16°56' W 062°30'1020.9
2018-Feb-17 22:00N 17°01' W 062°21'1020.6
2018-Feb-17 21:31N 17°07' W 062°12'1019.8
2018-Feb-17 21:01N 17°12' W 062°03'917.4
2018-Feb-17 20:31N 17°09' W 061°54'3 6.7
2018-Feb-17 20:00N 17°07' W 061°51'0 0.3
2018-Feb-17 19:29N 17°07' W 061°51'0 0.0
2018-Feb-17 18:59N 17°07' W 061°51'0 0.0
2018-Feb-17 18:29N 17°07' W 061°51'0 0.0
2018-Feb-17 17:59N 17°07' W 061°51'0 0.0
2018-Feb-17 17:29N 17°07' W 061°51'0 0.0
2018-Feb-17 16:59N 17°07' W 061°51'0 0.0
2018-Feb-17 16:29N 17°07' W 061°51'0 0.0
2018-Feb-17 15:59N 17°07' W 061°51'0 0.0
2018-Feb-17 15:29N 17°07' W 061°51'0 0.0
2018-Feb-17 14:59N 17°07' W 061°51'0 0.0
2018-Feb-17 14:29N 17°07' W 061°51'0 0.0
2018-Feb-17 13:59N 17°07' W 061°51'0 0.0
2018-Feb-17 13:29N 17°07' W 061°51'0 0.0
2018-Feb-17 12:59N 17°07' W 061°51'0 0.0
2018-Feb-17 12:29N 17°07' W 061°51'0 0.0
2018-Feb-17 11:59N 17°07' W 061°51'0 0.0
2018-Feb-17 11:29N 17°07' W 061°51'0 0.0
2018-Feb-17 10:59N 17°07' W 061°51'0 0.1
2018-Feb-17 10:30N 17°07' W 061°51'2 3.9
2018-Feb-17 10:00N 17°08' W 061°53'5 9.9
2018-Feb-17 09:30N 17°10' W 061°58'713.6
2018-Feb-17 09:00N 17°11' W 062°05'714.4
2018-Feb-17 08:30N 17°04' W 062°07'815.9
2018-Feb-17 08:00N 16°57' W 062°04'815.6
2018-Feb-17 07:30N 16°50' W 062°00'714.4
2018-Feb-17 07:00N 16°43' W 062°01'714.5
2018-Feb-17 06:30N 16°36' W 062°02'714.8
2018-Feb-17 06:00N 16°28' W 062°03'815.3
2018-Feb-17 05:30N 16°21' W 062°03'715.1
2018-Feb-17 05:00N 16°13' W 062°03'714.5
2018-Feb-17 04:30N 16°06' W 062°02'2037.9
2018-Feb-17 04:00N 15°48' W 061°54'6 4.3 050 / 161017.610.8 25.021.226.0
2018-Feb-17 02:42N 15°45' W 061°49'315.9
2018-Feb-17 02:30N 15°45' W 061°46'815.5
2018-Feb-17 01:59N 15°45' W 061°38'2112.5
2018-Feb-17 00:17N 16°05' W 061°31'412.5
2018-Feb-16 23:59N 16°09' W 061°31'3 6.8
2018-Feb-16 23:30N 16°12' W 061°32'2 3.9
2018-Feb-16 23:00N 16°14' W 061°32'0 0.0
2018-Feb-16 22:29N 16°14' W 061°32'0 0.0
2018-Feb-16 21:59N 16°14' W 061°32'0 0.0
2018-Feb-16 21:29N 16°14' W 061°32'0 0.0
2018-Feb-16 20:59N 16°14' W 061°32'0 0.0
2018-Feb-16 20:29N 16°14' W 061°32'0 0.0
2018-Feb-16 19:53N 16°14' W 061°32'0 0.0
2018-Feb-16 19:26N 16°14' W 061°32'0 0.0
2018-Feb-16 18:59N 16°14' W 061°32'0 0.0
2018-Feb-16 18:29N 16°14' W 061°32'0 0.0
2018-Feb-16 17:59N 16°14' W 061°32'0 0.0
2018-Feb-16 17:29N 16°14' W 061°32'0 0.0
2018-Feb-16 16:59N 16°14' W 061°32'0 0.0
2018-Feb-16 16:23N 16°14' W 061°32'0 0.0
2018-Feb-16 15:59N 16°14' W 061°32'0 0.0
2018-Feb-16 15:26N 16°14' W 061°32'0 0.0
2018-Feb-16 14:59N 16°14' W 061°32'0 0.0
2018-Feb-16 14:29N 16°14' W 061°32'0 0.0
2018-Feb-16 13:59N 16°14' W 061°32'0 0.0
2018-Feb-16 13:23N 16°14' W 061°32'0 0.0
2018-Feb-16 12:56N 16°14' W 061°32'0 0.0
2018-Feb-16 12:29N 16°14' W 061°32'1 1.3
2018-Feb-16 12:00N 16°14' W 061°32'4 8.3
2018-Feb-16 11:30N 16°09' W 061°32'4 8.7
2018-Feb-16 11:01N 16°07' W 061°29'918.6
2018-Feb-16 10:30N 15°58' W 061°26'1711.6
2018-Feb-16 09:00N 15°42' W 061°18'6323.3 080 / 351016.010.8 25.122.026.9
2018-Feb-16 06:16N 14°53' W 060°36'252 6.9
2018-Feb-14 18:00N 16°18' W 056°30'48618.0 070 / 221017.610.8 25.517.425.9
2018-Feb-13 15:00N 21°54' W 050°18'   050 / 251024.310.8 23.517.124.3
Track history (hours):
 
Tides and Currents Weather Stations Pressure Air Temp Water Temp Dewpoint Dewpoint Depression Visibility Wind Speed Wind Dir Waves Ship Positions

Ventura

Last reported at 2018-Feb-22 20:00 UTC. Time now 2018-Feb-24 06:30 UTC.
Position N 27°00' W 088°18'.

Length 289 m; draft 8.6 m.

Type: Passenger vessel. MMSI: 310562000.

Wind from 110 at 25 knots

Barometer 1023.9 mb
Air temperature 25.0 ° C
Visibility: greater than 10.8 NM
Dewpoint 22.0 ° C
Water temperature 25.4 ° C

Date/timePositionNaut miles runAvg speedWind from/ knotsBaromVisibWave heightAir tempDewpointWater temp
2018-Feb-22 20:00N 27°00' W 088°18'   110 / 251023.910.8 25.022.025.4
2018-Feb-20 04:00N 18°42' W 077°18'42913.4 090 / 201022.410.8 25.619.826.5
2018-Feb-18 20:00N 17°00' W 070°00'1717.2 080 / 211016.810.8 25.820.5
2018-Feb-18 19:00N 17°00' W 069°42'3417.2 050 / 251017.310.8 25.221.326.6
2018-Feb-18 17:00N 17°00' W 069°06'2928.7 060 / 201018.910.8 25.018.826.5
2018-Feb-18 16:00N 17°00' W 068°36'56651416.2 060 / 201020.210.8 25.019.126.0
2018-Feb-18 12:00N 16°54' W 167°18'5915739.3 080 / 201019.110.8 24.019.227.0
2018-Feb-18 04:00N 16°48' W 064°18'9518.8 060 / 201019.010.8 23.516.226.0
2018-Feb-17 22:56N 16°54' W 062°39'919.9
2018-Feb-17 22:28N 16°56' W 062°30'1020.9
2018-Feb-17 22:00N 17°01' W 062°21'1020.6
2018-Feb-17 21:31N 17°07' W 062°12'1019.8
2018-Feb-17 21:01N 17°12' W 062°03'917.4
2018-Feb-17 20:31N 17°09' W 061°54'3 6.7
2018-Feb-17 20:00N 17°07' W 061°51'0 0.3
2018-Feb-17 19:29N 17°07' W 061°51'0 0.0
2018-Feb-17 18:59N 17°07' W 061°51'0 0.0
2018-Feb-17 18:29N 17°07' W 061°51'0 0.0
2018-Feb-17 17:59N 17°07' W 061°51'0 0.0
2018-Feb-17 17:29N 17°07' W 061°51'0 0.0
2018-Feb-17 16:59N 17°07' W 061°51'0 0.0
2018-Feb-17 16:29N 17°07' W 061°51'0 0.0
2018-Feb-17 15:59N 17°07' W 061°51'0 0.0
2018-Feb-17 15:29N 17°07' W 061°51'0 0.0
2018-Feb-17 14:59N 17°07' W 061°51'0 0.0
2018-Feb-17 14:29N 17°07' W 061°51'0 0.0
2018-Feb-17 13:59N 17°07' W 061°51'0 0.0
2018-Feb-17 13:29N 17°07' W 061°51'0 0.0
2018-Feb-17 12:59N 17°07' W 061°51'0 0.0
2018-Feb-17 12:29N 17°07' W 061°51'0 0.0
2018-Feb-17 11:59N 17°07' W 061°51'0 0.0
2018-Feb-17 11:29N 17°07' W 061°51'0 0.0
2018-Feb-17 10:59N 17°07' W 061°51'0 0.1
2018-Feb-17 10:30N 17°07' W 061°51'2 3.9
2018-Feb-17 10:00N 17°08' W 061°53'5 9.9
2018-Feb-17 09:30N 17°10' W 061°58'713.6
2018-Feb-17 09:00N 17°11' W 062°05'714.4
2018-Feb-17 08:30N 17°04' W 062°07'815.9
2018-Feb-17 08:00N 16°57' W 062°04'815.6
2018-Feb-17 07:30N 16°50' W 062°00'714.4
2018-Feb-17 07:00N 16°43' W 062°01'714.5
2018-Feb-17 06:30N 16°36' W 062°02'714.8
2018-Feb-17 06:00N 16°28' W 062°03'815.3
2018-Feb-17 05:30N 16°21' W 062°03'715.1
2018-Feb-17 05:00N 16°13' W 062°03'714.5
2018-Feb-17 04:30N 16°06' W 062°02'2037.9
2018-Feb-17 04:00N 15°48' W 061°54'6 4.3 050 / 161017.610.8 25.021.226.0
2018-Feb-17 02:42N 15°45' W 061°49'315.9
2018-Feb-17 02:30N 15°45' W 061°46'815.5
2018-Feb-17 01:59N 15°45' W 061°38'2112.5
2018-Feb-17 00:17N 16°05' W 061°31'412.5
2018-Feb-16 23:59N 16°09' W 061°31'3 6.8
2018-Feb-16 23:30N 16°12' W 061°32'2 3.9
2018-Feb-16 23:00N 16°14' W 061°32'0 0.0
2018-Feb-16 22:29N 16°14' W 061°32'0 0.0
2018-Feb-16 21:59N 16°14' W 061°32'0 0.0
2018-Feb-16 21:29N 16°14' W 061°32'0 0.0
2018-Feb-16 20:59N 16°14' W 061°32'0 0.0
2018-Feb-16 20:29N 16°14' W 061°32'0 0.0
2018-Feb-16 19:53N 16°14' W 061°32'0 0.0
2018-Feb-16 19:26N 16°14' W 061°32'0 0.0
2018-Feb-16 18:59N 16°14' W 061°32'0 0.0
2018-Feb-16 18:29N 16°14' W 061°32'0 0.0
2018-Feb-16 17:59N 16°14' W 061°32'0 0.0
2018-Feb-16 17:29N 16°14' W 061°32'0 0.0
2018-Feb-16 16:59N 16°14' W 061°32'0 0.0
2018-Feb-16 16:23N 16°14' W 061°32'0 0.0
2018-Feb-16 15:59N 16°14' W 061°32'0 0.0
2018-Feb-16 15:26N 16°14' W 061°32'0 0.0
2018-Feb-16 14:59N 16°14' W 061°32'0 0.0
2018-Feb-16 14:29N 16°14' W 061°32'0 0.0
2018-Feb-16 13:59N 16°14' W 061°32'0 0.0
2018-Feb-16 13:23N 16°14' W 061°32'0 0.0
2018-Feb-16 12:56N 16°14' W 061°32'0 0.0
2018-Feb-16 12:29N 16°14' W 061°32'1 1.3
2018-Feb-16 12:00N 16°14' W 061°32'4 8.3
2018-Feb-16 11:30N 16°09' W 061°32'4 8.7
2018-Feb-16 11:01N 16°07' W 061°29'918.6
2018-Feb-16 10:30N 15°58' W 061°26'1711.6
2018-Feb-16 09:00N 15°42' W 061°18'6323.3 080 / 351016.010.8 25.122.026.9
2018-Feb-16 06:16N 14°53' W 060°36'252 6.9
2018-Feb-14 18:00N 16°18' W 056°30'48618.0 070 / 221017.610.8 25.517.425.9
2018-Feb-13 15:00N 21°54' W 050°18'   050 / 251024.310.8 23.517.124.3

Dump ship's entire track history